Time;durP1;ratioP1;P1;durP2;ratioP2;P2;SDS_P1;SDS_P2;PMS_P1;PMS_P2;Temp;Humidity;BMP_temperature;BMP_pressure;BME280_temperature;BME280_humidity;BME280_pressure;Samples;Min_cycle;Max_cycle;Signal;HPM_P1;HPM_P2
2022/08/01 00:00:06;;;;;;;0.52;0.40;;;20.20;99.90;;;;;;6153439;23;20488;-81
2022/08/01 00:02:37;;;;;;;0.50;0.50;;;20.30;99.90;;;;;;6152888;23;20044;-79
2022/08/01 00:05:07;;;;;;;0.35;0.30;;;20.30;99.90;;;;;;6177895;23;20388;-80
2022/08/01 00:07:34;;;;;;;0.32;0.32;;;20.30;99.90;;;;;;6180717;23;20075;-79
2022/08/01 00:10:03;;;;;;;0.30;0.30;;;20.30;99.90;;;;;;6209281;23;20499;-79
2022/08/01 00:12:30;;;;;;;0.30;0.30;;;20.30;99.90;;;;;;6211129;23;20083;-79
2022/08/01 00:14:56;;;;;;;0.30;0.30;;;20.30;99.90;;;;;;6211726;23;20375;-80
2022/08/01 00:17:23;;;;;;;0.30;0.30;;;20.20;99.90;;;;;;6185419;23;20090;-80
2022/08/01 00:19:51;;;;;;;0.30;0.30;;;20.20;99.90;;;;;;6236187;23;20499;-79
2022/08/01 00:22:18;;;;;;;0.32;0.32;;;20.20;99.90;;;;;;6236034;23;20028;-81
2022/08/01 00:24:45;;;;;;;0.32;0.32;;;20.10;99.90;;;;;;6182841;23;20040;-79
2022/08/01 00:27:12;;;;;;;0.50;0.50;;;20.10;99.90;;;;;;6231881;23;20024;-79
2022/08/01 00:29:39;;;;;;;0.45;0.30;;;20.00;99.90;;;;;;6235867;23;20027;-80
2022/08/01 00:32:26;;;;;;;0.20;0.20;;;20.00;99.90;;;;;;6235107;22;20028;-80
2022/08/01 00:34:53;;;;;;;0.20;0.20;;;20.00;99.90;;;;;;6210380;23;20081;-80
2022/08/01 00:37:20;;;;;;;0.43;0.43;;;19.90;99.90;;;;;;6211104;23;20383;-80
2022/08/01 00:39:47;;;;;;;0.25;0.20;;;19.90;99.90;;;;;;6236087;23;20239;-80
2022/08/01 00:42:14;;;;;;;0.30;0.30;;;19.90;99.90;;;;;;6210030;23;20161;-81
2022/08/01 00:44:41;;;;;;;0.30;0.30;;;19.80;99.90;;;;;;6236244;23;20047;-80
2022/08/01 00:47:08;;;;;;;0.20;0.20;;;19.80;99.90;;;;;;6236947;23;20020;-79
2022/08/01 00:49:35;;;;;;;0.32;0.32;;;19.80;99.90;;;;;;6188099;23;20024;-79
2022/08/01 00:52:04;;;;;;;0.30;0.30;;;19.70;99.90;;;;;;6213403;23;20039;-79
2022/08/01 00:54:31;;;;;;;0.30;0.30;;;19.60;99.90;;;;;;6213171;23;20051;-80
2022/08/01 00:56:58;;;;;;;0.20;0.20;;;19.60;99.90;;;;;;6188388;23;20021;-80
2022/08/01 00:59:25;;;;;;;0.40;0.40;;;19.60;99.90;;;;;;6187437;23;20024;-79
2022/08/01 01:01:53;;;;;;;0.40;0.40;;;19.50;99.90;;;;;;6185838;23;20020;-79
2022/08/01 01:04:20;;;;;;;0.30;0.30;;;19.40;99.90;;;;;;6209047;23;20719;-78
2022/08/01 01:07:00;;;;;;;0.40;0.40;;;19.40;99.90;;;;;;6237039;23;20761;-78
2022/08/01 01:09:49;;;;;;;0.20;0.20;;;19.30;99.90;;;;;;6212977;23;20141;-79
2022/08/01 01:12:25;;;;;;;0.40;0.40;;;19.30;99.90;;;;;;6212153;23;20872;-80
2022/08/01 01:15:05;;;;;;;0.32;0.32;;;19.30;99.90;;;;;;6238201;23;20028;-80
2022/08/01 01:17:39;;;;;;;0.22;0.22;;;19.40;99.90;;;;;;6236626;23;20041;-80
2022/08/01 01:20:16;;;;;;;0.38;0.38;;;19.30;99.90;;;;;;6215993;23;20028;-82
2022/08/01 01:23:20;;;;;;;0.32;0.32;;;19.30;99.90;;;;;;6212826;23;20021;-80
2022/08/01 01:26:35;;;;;;;0.20;0.20;;;19.30;99.90;;;;;;6239856;22;20055;-80
2022/08/01 01:29:04;;;;;;;0.40;0.40;;;19.30;99.90;;;;;;6152739;22;20022;-80
2022/08/01 02:15:18;;;;;;;0.30;0.30;;;19.40;99.90;;;;;;6214053;22;20023;-89
2022/08/01 02:17:48;;;;;;;0.40;0.40;;;19.40;99.90;;;;;;6167918;23;20017;-88
2022/08/01 02:20:16;;;;;;;0.32;0.32;;;19.30;99.90;;;;;;6167622;23;20016;-87
2022/08/01 02:22:44;;;;;;;0.38;0.38;;;19.20;99.90;;;;;;6167596;23;20024;-87
2022/08/01 02:25:27;;;;;;;0.40;0.40;;;19.20;99.90;;;;;;6193336;23;20443;-88
2022/08/01 02:28:06;;;;;;;0.40;0.40;;;19.10;99.90;;;;;;6217099;23;20086;-88
2022/08/01 02:30:35;;;;;;;0.30;0.30;;;19.10;99.90;;;;;;6170468;23;20016;-88
2022/08/01 02:33:16;;;;;;;0.40;0.40;;;19.10;99.90;;;;;;6164887;23;20012;-90
2022/08/01 02:35:45;;;;;;;0.65;0.55;;;19.10;99.90;;;;;;6161878;23;20039;-90
2022/08/01 02:38:36;;;;;;;0.30;0.30;;;19.00;99.90;;;;;;6187754;23;20028;-87
2022/08/01 02:41:08;;;;;;;0.25;0.25;;;19.00;99.90;;;;;;6161214;23;20031;-90
2022/08/01 02:43:50;;;;;;;0.60;0.40;;;18.90;99.90;;;;;;6158686;23;20098;-92
2022/08/01 02:46:34;;;;;;;0.30;0.30;;;18.80;99.90;;;;;;6163195;23;20024;-92
2022/08/01 02:49:02;;;;;;;0.43;0.43;;;18.80;99.90;;;;;;6160084;23;20044;-90
2022/08/01 02:51:29;;;;;;;0.63;0.40;;;18.70;99.90;;;;;;6162446;23;20107;-91
2022/08/01 02:53:56;;;;;;;0.20;0.20;;;18.70;99.90;;;;;;6161307;23;20501;-87
2022/08/01 02:56:24;;;;;;;0.30;0.30;;;18.60;99.90;;;;;;6158640;23;20020;-88
2022/08/01 02:58:52;;;;;;;0.30;0.30;;;18.50;99.90;;;;;;6162089;23;20401;-87
2022/08/01 03:01:22;;;;;;;0.50;0.40;;;18.50;99.90;;;;;;6162530;23;20017;-89
2022/08/01 03:03:52;;;;;;;0.32;0.32;;;18.40;99.90;;;;;;6164196;23;20020;-88
2022/08/01 03:06:19;;;;;;;0.10;0.10;;;18.40;99.90;;;;;;6161799;23;20013;-88
2022/08/01 03:08:48;;;;;;;0.40;0.40;;;18.30;99.90;;;;;;6160681;23;20047;-88
2022/08/01 03:11:15;;;;;;;0.20;0.20;;;18.30;99.90;;;;;;6161727;23;20094;-88
2022/08/01 03:13:43;;;;;;;0.30;0.30;;;18.20;99.90;;;;;;6160092;23;20039;-88
2022/08/01 03:16:10;;;;;;;0.47;0.40;;;18.20;99.90;;;;;;6189439;23;20098;-87
2022/08/01 03:18:38;;;;;;;0.30;0.30;;;18.20;99.90;;;;;;6214853;23;20335;-87
2022/08/01 03:21:05;;;;;;;0.50;0.50;;;18.10;99.90;;;;;;6215073;23;20537;-87
2022/08/01 03:23:32;;;;;;;0.30;0.30;;;18.10;99.90;;;;;;6212428;23;20293;-87
2022/08/01 03:26:04;;;;;;;0.53;0.43;;;18.00;99.90;;;;;;6216730;23;20097;-87
2022/08/01 03:28:31;;;;;;;1.40;0.30;;;18.00;99.90;;;;;;6239507;22;20253;-87
2022/08/01 03:30:58;;;;;;;0.30;0.30;;;18.00;99.90;;;;;;6213215;23;20089;-87
2022/08/01 03:33:26;;;;;;;0.40;0.40;;;17.90;99.90;;;;;;6211772;23;20099;-87
2022/08/01 03:35:53;;;;;;;0.38;0.38;;;17.80;99.90;;;;;;6212292;23;20485;-88
2022/08/01 03:38:23;;;;;;;0.47;0.40;;;17.80;99.90;;;;;;6213571;23;20024;-87
2022/08/01 03:40:59;;;;;;;1.15;0.55;;;17.80;99.90;;;;;;6239962;23;20063;-87
2022/08/01 03:43:32;;;;;;;0.40;0.35;;;17.80;99.90;;;;;;6214279;23;20080;-87
2022/08/01 03:46:04;;;;;;;0.43;0.40;;;17.70;99.90;;;;;;6213751;23;20126;-86
2022/08/01 03:48:31;;;;;;;0.47;0.47;;;17.70;99.90;;;;;;6213581;23;20030;-87
2022/08/01 03:50:58;;;;;;;0.50;0.50;;;17.70;99.90;;;;;;6238809;22;20285;-88
2022/08/01 03:53:28;;;;;;;0.50;0.50;;;17.70;99.90;;;;;;6213137;23;20020;-90
2022/08/01 03:55:56;;;;;;;0.47;0.45;;;17.70;99.90;;;;;;6217255;23;20020;-87
2022/08/01 03:58:23;;;;;;;0.40;0.40;;;17.70;99.90;;;;;;6219886;23;20023;-87
2022/08/01 04:00:50;;;;;;;0.75;0.50;;;17.70;99.90;;;;;;6220942;23;20060;-87
2022/08/01 04:03:17;;;;;;;0.45;0.45;;;17.70;99.90;;;;;;6218069;23;20047;-88
2022/08/01 04:05:44;;;;;;;0.30;0.30;;;17.80;99.90;;;;;;6218793;23;20050;-87
2022/08/01 04:08:12;;;;;;;0.30;0.30;;;17.90;99.90;;;;;;6190703;23;20051;-88
2022/08/01 04:10:42;;;;;;;0.43;0.43;;;17.90;99.90;;;;;;6216965;23;20020;-89
2022/08/01 04:13:09;;;;;;;0.52;0.52;;;18.00;99.90;;;;;;6211810;23;20073;-88
2022/08/01 04:15:36;;;;;;;0.47;0.47;;;18.00;99.90;;;;;;6211700;23;20032;-88
2022/08/01 04:18:03;;;;;;;0.47;0.40;;;18.00;99.90;;;;;;6212935;23;20022;-88
2022/08/01 04:20:30;;;;;;;0.30;0.30;;;18.00;99.90;;;;;;6212955;23;20024;-89
2022/08/01 04:22:57;;;;;;;0.25;0.25;;;18.10;99.90;;;;;;6212843;23;20016;-88
2022/08/01 04:25:27;;;;;;;0.32;0.32;;;18.10;99.90;;;;;;6212196;23;20023;-89
2022/08/01 04:27:54;;;;;;;0.57;0.57;;;18.10;99.90;;;;;;6213760;23;20016;-87
2022/08/01 04:30:24;;;;;;;0.40;0.40;;;18.00;99.90;;;;;;6213482;23;20031;-89
2022/08/01 04:32:52;;;;;;;0.30;0.30;;;17.90;99.90;;;;;;6214559;23;20222;-87
2022/08/01 04:35:19;;;;;;;0.40;0.40;;;17.90;99.90;;;;;;6215653;23;20473;-87
2022/08/01 04:38:05;;;;;;;0.30;0.30;;;17.90;99.90;;;;;;6220975;23;20027;-89
2022/08/01 04:40:32;;;;;;;0.45;0.45;;;17.80;99.90;;;;;;6214495;23;20317;-89
2022/08/01 04:43:00;;;;;;;0.40;0.40;;;17.80;99.90;;;;;;6213208;23;20031;-88
2022/08/01 04:45:27;;;;;;;0.20;0.20;;;17.90;99.90;;;;;;6212372;23;20048;-90
2022/08/01 04:47:54;;;;;;;0.50;0.47;;;17.90;99.90;;;;;;6210745;23;20016;-90
2022/08/01 04:50:21;;;;;;;0.55;0.55;;;18.00;99.90;;;;;;6212059;23;20043;-89
2022/08/01 04:52:48;;;;;;;0.45;0.45;;;18.00;99.90;;;;;;6210514;23;20016;-89
2022/08/01 04:55:16;;;;;;;0.60;0.52;;;18.00;99.90;;;;;;6211062;23;20039;-89
2022/08/01 04:57:44;;;;;;;0.50;0.50;;;18.00;99.90;;;;;;6210571;23;20016;-91
2022/08/01 05:00:12;;;;;;;0.50;0.50;;;18.10;99.90;;;;;;6211243;23;20090;-91
2022/08/01 05:02:39;;;;;;;0.30;0.30;;;18.10;99.90;;;;;;6209306;23;20031;-89
2022/08/01 05:05:06;;;;;;;0.55;0.43;;;18.10;99.90;;;;;;6212387;23;20087;-90
2022/08/01 05:07:35;;;;;;;0.68;0.63;;;18.10;99.90;;;;;;6211258;23;20099;-93
2022/08/01 05:10:11;;;;;;;0.60;0.60;;;18.20;99.90;;;;;;6213448;23;20059;-92
2022/08/01 05:12:38;;;;;;;0.40;0.40;;;18.20;99.90;;;;;;6210426;23;20012;-90
2022/08/01 05:15:06;;;;;;;0.82;0.60;;;18.20;99.90;;;;;;6207717;23;20051;-90
2022/08/01 05:17:41;;;;;;;0.40;0.40;;;18.20;99.90;;;;;;6159297;23;20355;-93
2022/08/01 05:20:10;;;;;;;0.30;0.30;;;18.20;99.90;;;;;;6155590;23;20017;-93
2022/08/01 05:22:37;;;;;;;0.50;0.50;;;18.30;99.90;;;;;;6157791;23;20021;-90
2022/08/01 05:25:05;;;;;;;0.50;0.50;;;18.40;99.90;;;;;;6158437;23;20027;-93
2022/08/01 05:27:37;;;;;;;0.60;0.60;;;18.40;99.90;;;;;;6157748;23;20017;-90
2022/08/01 05:30:06;;;;;;;0.50;0.40;;;18.50;99.90;;;;;;6161054;23;20035;-93
2022/08/01 05:32:37;;;;;;;0.73;0.60;;;18.50;99.90;;;;;;6176243;23;20435;-93
2022/08/01 05:35:05;;;;;;;0.40;0.40;;;18.50;99.90;;;;;;6159213;23;20096;-93
2022/08/01 05:37:32;;;;;;;0.40;0.40;;;18.50;99.90;;;;;;6158719;23;20021;-93
2022/08/01 05:39:59;;;;;;;0.47;0.47;;;18.60;99.90;;;;;;6159696;23;20051;-92
2022/08/01 05:42:26;;;;;;;0.60;0.60;;;18.60;99.90;;;;;;6159048;23;20020;-92
2022/08/01 05:44:54;;;;;;;0.40;0.40;;;18.70;99.90;;;;;;6159254;23;20339;-92
2022/08/01 05:47:21;;;;;;;0.55;0.55;;;18.80;99.90;;;;;;6157939;23;20024;-92
2022/08/01 05:50:02;;;;;;;0.55;0.52;;;18.80;99.90;;;;;;6157995;23;20021;-92
2022/08/01 05:52:30;;;;;;;0.40;0.40;;;18.90;99.90;;;;;;6164678;23;20031;-93
2022/08/01 05:54:59;;;;;;;1.75;0.50;;;19.00;99.90;;;;;;6163830;23;20021;-91
2022/08/01 05:57:26;;;;;;;0.35;0.35;;;19.10;99.90;;;;;;6168251;23;20032;-90
2022/08/01 05:59:53;;;;;;;0.45;0.45;;;19.10;99.90;;;;;;6166181;23;20086;-91
2022/08/01 06:02:22;;;;;;;0.50;0.50;;;19.30;99.90;;;;;;6162380;23;20024;-91
2022/08/01 06:04:50;;;;;;;0.50;0.50;;;19.40;99.90;;;;;;6161404;23;20088;-92
2022/08/01 06:07:17;;;;;;;0.63;0.63;;;19.40;99.90;;;;;;6159638;23;20103;-89
2022/08/01 06:09:44;;;;;;;0.57;0.57;;;19.50;99.90;;;;;;6159713;23;20108;-87
2022/08/01 06:12:12;;;;;;;0.50;0.50;;;19.60;99.90;;;;;;6162786;23;20032;-91
2022/08/01 06:14:39;;;;;;;0.80;0.60;;;19.70;99.90;;;;;;6161564;23;20468;-88
2022/08/01 06:17:06;;;;;;;0.88;0.60;;;19.90;99.90;;;;;;6211395;23;20037;-89
2022/08/01 06:19:33;;;;;;;1.17;0.65;;;19.90;99.90;;;;;;6221010;23;20023;-89
2022/08/01 06:22:00;;;;;;;0.50;0.50;;;20.00;99.90;;;;;;6220594;23;20024;-88
2022/08/01 06:24:27;;;;;;;0.50;0.50;;;20.10;99.90;;;;;;6215586;23;20020;-89
2022/08/01 06:26:54;;;;;;;0.50;0.50;;;20.20;99.90;;;;;;6215312;23;20024;-88
2022/08/01 06:29:21;;;;;;;0.40;0.40;;;20.30;99.90;;;;;;6214722;23;20170;-90
2022/08/01 06:31:49;;;;;;;0.30;0.30;;;20.30;99.90;;;;;;6212086;23;20323;-91
2022/08/01 06:34:16;;;;;;;0.50;0.50;;;20.30;99.90;;;;;;6213618;23;20351;-91
2022/08/01 06:36:43;;;;;;;0.40;0.30;;;20.30;99.90;;;;;;6215304;23;20176;-90
2022/08/01 06:39:12;;;;;;;0.40;0.40;;;20.30;99.90;;;;;;6190279;23;20039;-90
2022/08/01 06:41:41;;;;;;;0.60;0.50;;;20.30;99.90;;;;;;6216235;23;20012;-89
2022/08/01 06:44:08;;;;;;;0.50;0.50;;;20.20;99.90;;;;;;6216415;23;20048;-91
2022/08/01 06:46:35;;;;;;;1.42;0.80;;;20.30;99.90;;;;;;6215237;23;20039;-90
2022/08/01 06:49:03;;;;;;;0.50;0.50;;;20.30;99.90;;;;;;6212560;23;20094;-91
2022/08/01 06:51:30;;;;;;;0.65;0.60;;;20.30;99.90;;;;;;6212466;23;20249;-90
2022/08/01 06:53:58;;;;;;;0.40;0.40;;;20.40;99.90;;;;;;6212023;23;20020;-91
2022/08/01 06:56:25;;;;;;;0.60;0.60;;;20.40;99.90;;;;;;6212766;23;20023;-90
2022/08/01 06:59:00;;;;;;;0.47;0.47;;;20.40;99.90;;;;;;6211880;23;20470;-91
2022/08/01 07:01:28;;;;;;;0.75;0.68;;;20.40;99.90;;;;;;6213435;23;20086;-92
2022/08/01 07:03:59;;;;;;;0.60;0.60;;;20.50;99.90;;;;;;6214362;23;20024;-90
2022/08/01 07:06:27;;;;;;;0.80;0.50;;;20.50;99.90;;;;;;6215406;23;20020;-92
2022/08/01 07:08:54;;;;;;;0.50;0.50;;;20.50;99.90;;;;;;6217369;23;20454;-91
2022/08/01 07:11:21;;;;;;;0.60;0.50;;;20.50;99.90;;;;;;6214456;23;20028;-91
2022/08/01 07:13:49;;;;;;;0.40;0.40;;;20.60;99.90;;;;;;6214626;23;20020;-91
2022/08/01 07:16:16;;;;;;;0.40;0.40;;;20.60;99.90;;;;;;6215039;23;20106;-92
2022/08/01 07:18:43;;;;;;;0.43;0.40;;;20.70;99.90;;;;;;6213972;23;20023;-91
2022/08/01 07:21:10;;;;;;;0.50;0.50;;;20.70;99.90;;;;;;6213885;23;20020;-90
2022/08/01 07:23:57;;;;;;;0.40;0.40;;;20.90;99.90;;;;;;6218306;23;20020;-90
2022/08/01 07:26:27;;;;;;;0.35;0.35;;;20.90;99.90;;;;;;6214640;23;20393;-91
2022/08/01 07:28:54;;;;;;;0.60;0.60;;;21.10;99.90;;;;;;6213653;23;20091;-91
2022/08/01 07:31:22;;;;;;;1.15;0.60;;;21.10;99.90;;;;;;6213991;23;20024;-91
2022/08/01 07:33:50;;;;;;;0.30;0.30;;;21.20;99.90;;;;;;6213033;23;20016;-91
2022/08/01 07:36:17;;;;;;;0.40;0.40;;;21.30;99.90;;;;;;6215575;23;20228;-92
2022/08/01 07:38:45;;;;;;;0.35;0.35;;;21.50;99.90;;;;;;6215143;23;20016;-93
2022/08/01 07:41:12;;;;;;;0.60;0.40;;;21.60;99.90;;;;;;6215844;23;20016;-92
2022/08/01 07:43:39;;;;;;;0.43;0.43;;;21.70;99.90;;;;;;6215074;23;20431;-95
2022/08/01 07:46:12;;;;;;;0.50;0.50;;;21.70;99.90;;;;;;6217233;23;20047;-93
2022/08/01 07:48:40;;;;;;;0.80;0.50;;;21.60;99.90;;;;;;6215186;23;20020;-93
2022/08/01 07:51:09;;;;;;;0.43;0.43;;;21.60;99.90;;;;;;6213472;23;20081;-92
2022/08/01 07:53:37;;;;;;;0.50;0.40;;;21.50;99.90;;;;;;6213620;23;20070;-90
2022/08/01 07:56:07;;;;;;;0.85;0.55;;;21.50;99.90;;;;;;6215072;23;20020;-91
2022/08/01 07:58:34;;;;;;;0.50;0.50;;;21.70;99.90;;;;;;6214335;23;20016;-91
2022/08/01 08:01:01;;;;;;;0.47;0.40;;;21.80;99.90;;;;;;6213782;23;20239;-91
2022/08/01 08:03:28;;;;;;;0.50;0.50;;;22.00;99.90;;;;;;6213515;23;20095;-91
2022/08/01 08:05:55;;;;;;;0.40;0.40;;;22.20;99.90;;;;;;6213071;23;20051;-90
2022/08/01 08:08:26;;;;;;;0.30;0.30;;;22.40;99.90;;;;;;6214241;23;20102;-90
2022/08/01 08:10:56;;;;;;;0.50;0.50;;;22.60;99.90;;;;;;6214498;23;20030;-91
2022/08/01 08:13:23;;;;;;;0.30;0.30;;;22.70;99.90;;;;;;6213761;23;20016;-91
2022/08/01 08:15:50;;;;;;;0.40;0.40;;;22.70;99.90;;;;;;6213712;23;20059;-91
2022/08/01 08:18:17;;;;;;;0.40;0.40;;;22.70;99.90;;;;;;6230608;23;20047;-91
2022/08/01 08:20:44;;;;;;;0.40;0.40;;;22.60;99.90;;;;;;6223392;23;20016;-93
2022/08/01 08:26:09;;;;;;;0.40;0.40;;;22.90;99.90;;;;;;6239752;23;20047;-94
2022/08/01 08:28:36;;;;;;;0.40;0.40;;;23.00;99.90;;;;;;6212204;23;20028;-92
2022/08/01 08:31:03;;;;;;;0.57;0.50;;;23.10;99.90;;;;;;6213959;23;20016;-94
2022/08/01 08:33:31;;;;;;;0.30;0.30;;;23.10;99.90;;;;;;6216906;23;20344;-95
2022/08/01 08:35:58;;;;;;;0.30;0.30;;;23.10;99.90;;;;;;6214946;23;20707;-93
2022/08/01 08:38:27;;;;;;;0.30;0.30;;;23.10;99.90;;;;;;6216179;23;20027;-91
2022/08/01 08:40:56;;;;;;;0.57;0.57;;;23.20;99.90;;;;;;6227073;23;20099;-94
2022/08/01 08:43:24;;;;;;;0.85;0.60;;;23.30;99.90;;;;;;6220947;23;20016;-93
2022/08/01 08:45:55;;;;;;;0.38;0.30;;;23.40;99.90;;;;;;6216948;23;20142;-91
2022/08/01 08:48:26;;;;;;;0.40;0.40;;;23.40;99.90;;;;;;6216669;23;20019;-92
2022/08/01 08:50:54;;;;;;;0.25;0.25;;;23.40;99.90;;;;;;6216692;23;20027;-95
2022/08/01 08:53:21;;;;;;;0.32;0.32;;;23.40;99.90;;;;;;6218050;23;20043;-94
2022/08/01 08:56:00;;;;;;;0.30;0.30;;;23.40;99.90;;;;;;6218360;23;20055;-94
2022/08/01 08:58:27;;;;;;;0.30;0.30;;;23.50;99.90;;;;;;6212861;23;20077;-93
2022/08/01 09:00:57;;;;;;;0.30;0.30;;;23.70;99.90;;;;;;6212802;23;20047;-92
2022/08/01 09:03:24;;;;;;;0.38;0.38;;;23.70;99.90;;;;;;6212238;23;20481;-94
2022/08/01 09:05:53;;;;;;;0.30;0.30;;;23.90;99.90;;;;;;6213565;23;20016;-95
2022/08/01 09:08:27;;;;;;;0.50;0.50;;;24.00;99.90;;;;;;6214771;23;20023;-94
2022/08/01 09:10:54;;;;;;;0.30;0.30;;;24.30;99.90;;;;;;6217518;23;20055;-95
2022/08/01 09:13:21;;;;;;;0.30;0.30;;;24.40;99.90;;;;;;6215530;23;20020;-94
2022/08/01 09:15:50;;;;;;;0.80;0.35;;;24.60;99.90;;;;;;6217488;23;20024;-94
2022/08/01 09:18:31;;;;;;;0.40;0.32;;;24.60;99.90;;;;;;6217574;23;20051;-91
2022/08/01 09:21:12;;;;;;;0.40;0.40;;;24.70;99.90;;;;;;6216751;23;20024;-93
2022/08/01 09:24:02;;;;;;;0.30;0.28;;;24.50;99.90;;;;;;6219576;23;20012;-96
2022/08/01 09:26:34;;;;;;;0.38;0.30;;;24.60;99.90;;;;;;6223595;23;20086;-94
2022/08/01 09:29:05;;;;;;;0.20;0.20;;;24.70;99.90;;;;;;6219520;23;20047;-95
2022/08/01 09:31:40;;;;;;;0.30;0.30;;;24.80;99.90;;;;;;6222403;23;20362;-93
2022/08/01 09:34:13;;;;;;;0.43;0.43;;;24.90;99.90;;;;;;6221629;23;20050;-93
2022/08/01 09:37:17;;;;;;;0.50;0.40;;;24.80;99.90;;;;;;6220116;23;20111;-94
2022/08/01 09:39:54;;;;;;;0.30;0.30;;;24.80;99.90;;;;;;6108332;22;20140;-93
2022/08/01 09:42:30;;;;;;;0.20;0.20;;;24.80;99.90;;;;;;6216609;23;20079;-91
2022/08/01 09:44:58;;;;;;;0.30;0.30;;;24.60;99.90;;;;;;6217305;23;20269;-92
2022/08/01 09:47:37;;;;;;;0.30;0.30;;;24.80;99.60;;;;;;6221375;23;20016;-92
2022/08/01 09:50:07;;;;;;;0.50;0.50;;;24.90;99.30;;;;;;6217419;23;20016;-92
2022/08/01 09:52:37;;;;;;;0.40;0.40;;;24.80;99.90;;;;;;6217410;23;20092;-93
2022/08/01 09:55:07;;;;;;;0.32;0.32;;;24.80;99.90;;;;;;6218613;23;20043;-94
2022/08/01 09:57:34;;;;;;;0.40;0.40;;;24.90;99.90;;;;;;6217119;23;20100;-92
2022/08/01 10:00:03;;;;;;;0.52;0.30;;;24.90;99.80;;;;;;6216759;23;20035;-92
2022/08/01 10:02:37;;;;;;;0.47;0.45;;;25.00;99.80;;;;;;6215690;23;20075;-92
2022/08/01 10:05:09;;;;;;;0.40;0.40;;;25.00;99.70;;;;;;6216695;23;20016;-95
2022/08/01 10:08:01;;;;;;;0.32;0.20;;;25.10;99.20;;;;;;6219398;23;20027;-92
2022/08/01 10:10:33;;;;;;;0.57;0.50;;;25.20;99.10;;;;;;6217220;23;20043;-94
2022/08/01 10:13:03;;;;;;;0.60;0.52;;;25.00;99.00;;;;;;6215752;23;20286;-94
2022/08/01 10:15:30;;;;;;;0.30;0.30;;;25.10;98.50;;;;;;6214965;23;20475;-91
2022/08/01 10:18:05;;;;;;;0.20;0.20;;;25.30;98.30;;;;;;6217140;23;20023;-93
2022/08/01 10:20:46;;;;;;;0.40;0.40;;;25.60;97.50;;;;;;6214668;23;20058;-94
2022/08/01 10:23:14;;;;;;;0.60;0.60;;;25.90;97.70;;;;;;6213568;23;20020;-94
2022/08/01 10:25:42;;;;;;;0.40;0.40;;;26.00;97.30;;;;;;6214049;23;20020;-92
2022/08/01 10:28:17;;;;;;;0.85;0.50;;;25.80;97.50;;;;;;6215161;23;20048;-92
2022/08/01 10:30:49;;;;;;;0.52;0.40;;;25.80;97.30;;;;;;6213688;23;20047;-92
2022/08/01 10:33:23;;;;;;;1.10;0.40;;;25.90;97.00;;;;;;6212986;23;20088;-93
2022/08/01 10:36:10;;;;;;;0.50;0.50;;;25.80;97.30;;;;;;6222340;23;20031;-94
2022/08/01 10:38:37;;;;;;;0.63;0.40;;;25.60;97.40;;;;;;6225682;23;20034;-93
2022/08/01 10:41:05;;;;;;;0.20;0.20;;;25.60;96.60;;;;;;6212545;23;20328;-95
2022/08/01 10:43:35;;;;;;;0.30;0.30;;;25.80;96.50;;;;;;6211995;23;20028;-94
2022/08/01 10:46:04;;;;;;;0.30;0.30;;;25.70;96.10;;;;;;6211452;23;20223;-95
2022/08/01 10:48:51;;;;;;;0.30;0.30;;;25.70;96.00;;;;;;6214140;23;20040;-95
2022/08/01 10:51:20;;;;;;;0.30;0.30;;;25.80;96.40;;;;;;6212467;23;20510;-94
2022/08/01 10:53:50;;;;;;;0.40;0.30;;;25.90;96.40;;;;;;6212677;23;20291;-92
2022/08/01 10:56:23;;;;;;;0.30;0.30;;;25.90;95.60;;;;;;6215629;23;20032;-96
2022/08/01 10:59:00;;;;;;;0.30;0.30;;;25.90;95.70;;;;;;6220337;23;20028;-95
2022/08/01 11:01:32;;;;;;;0.20;0.20;;;25.90;95.30;;;;;;6220213;23;20064;-93
2022/08/01 11:04:13;;;;;;;1.52;0.50;;;25.90;95.80;;;;;;6215499;23;20402;-93
2022/08/01 11:06:52;;;;;;;0.50;0.38;;;25.80;95.30;;;;;;6214386;23;20020;-94
2022/08/01 11:09:41;;;;;;;0.40;0.40;;;26.10;94.90;;;;;;6212229;23;20055;-93
2022/08/01 11:12:13;;;;;;;0.30;0.30;;;26.50;94.40;;;;;;6211880;23;20026;-93
2022/08/01 11:15:00;;;;;;;0.30;0.30;;;26.90;93.70;;;;;;6211369;23;20076;-93
2022/08/01 11:17:48;;;;;;;0.40;0.30;;;27.20;92.50;;;;;;6179362;23;20098;-93
2022/08/01 11:20:25;;;;;;;0.25;0.25;;;27.20;92.60;;;;;;6158305;23;20415;-92
2022/08/01 11:23:03;;;;;;;0.50;0.30;;;27.20;92.40;;;;;;6157047;23;20431;-93
2022/08/01 11:25:36;;;;;;;0.63;0.47;;;26.90;93.10;;;;;;6180094;23;20024;-92
2022/08/01 11:28:24;;;;;;;0.30;0.30;;;27.10;93.00;;;;;;6184833;23;20059;-92
2022/08/01 11:31:01;;;;;;;0.75;0.52;;;27.30;92.20;;;;;;6161382;23;20119;-92
2022/08/01 11:33:42;;;;;;;0.30;0.20;;;27.40;91.50;;;;;;6180389;23;20103;-91
2022/08/01 11:36:12;;;;;;;0.20;0.20;;;27.60;91.60;;;;;;6181819;23;20020;-93
2022/08/01 11:38:48;;;;;;;0.28;0.28;;;27.80;91.30;;;;;;6180868;23;20032;-92
2022/08/01 11:41:21;;;;;;;0.20;0.20;;;27.80;91.10;;;;;;6159539;23;20028;-93
2022/08/01 11:44:08;;;;;;;0.40;0.40;;;27.80;90.60;;;;;;6163261;23;20163;-93
2022/08/01 11:46:59;;;;;;;0.22;0.22;;;27.90;90.70;;;;;;6158253;23;20051;-94
2022/08/01 11:49:44;;;;;;;0.28;0.28;;;28.10;90.00;;;;;;6159945;23;20194;-94
2022/08/01 11:52:26;;;;;;;1.00;0.70;;;28.00;89.80;;;;;;6181332;23;20028;-94
2022/08/01 11:55:06;;;;;;;0.98;0.63;;;27.60;90.30;;;;;;6158527;23;20020;-94
2022/08/01 11:57:37;;;;;;;0.57;0.45;;;27.30;90.50;;;;;;6157978;23;20044;-94
2022/08/01 12:00:13;;;;;;;0.40;0.40;;;27.20;90.40;;;;;;6155256;23;20416;-94
2022/08/01 12:02:44;;;;;;;0.30;0.30;;;27.20;90.90;;;;;;6157377;23;20131;-92
2022/08/01 12:05:17;;;;;;;0.32;0.32;;;27.30;90.60;;;;;;6156243;23;20032;-93
2022/08/01 12:07:50;;;;;;;0.43;0.40;;;27.20;90.40;;;;;;6156421;23;20025;-94
2022/08/01 12:10:18;;;;;;;0.50;0.47;;;27.30;90.70;;;;;;6156868;23;20012;-94
2022/08/01 12:12:57;;;;;;;0.30;0.30;;;27.60;90.70;;;;;;6156940;23;20488;-93
2022/08/01 12:15:24;;;;;;;0.30;0.30;;;28.30;90.20;;;;;;6166306;23;20099;-93
2022/08/01 12:17:56;;;;;;;0.40;0.40;;;28.60;88.80;;;;;;6211149;23;20431;-93
2022/08/01 12:20:32;;;;;;;0.40;0.40;;;29.00;88.50;;;;;;6211908;23;20118;-94
2022/08/01 12:23:05;;;;;;;0.40;0.40;;;29.40;87.80;;;;;;6211369;23;20331;-91
2022/08/01 12:25:35;;;;;;;0.50;0.50;;;30.00;87.10;;;;;;6213875;23;20138;-92
2022/08/01 12:28:03;;;;;;;0.30;0.30;;;30.00;86.00;;;;;;6211815;23;20031;-91
2022/08/01 12:30:31;;;;;;;0.35;0.30;;;29.40;86.20;;;;;;6211055;23;20095;-91
2022/08/01 12:32:58;;;;;;;0.20;0.20;;;29.00;86.80;;;;;;6211780;23;20103;-92
2022/08/01 12:35:26;;;;;;;0.80;0.35;;;28.90;87.70;;;;;;6209835;23;20012;-91
2022/08/01 12:37:58;;;;;;;0.20;0.10;;;28.70;87.80;;;;;;6211585;23;20265;-93
2022/08/01 12:40:29;;;;;;;0.75;0.40;;;28.50;87.90;;;;;;6234862;22;20078;-90
2022/08/01 12:43:02;;;;;;;0.30;0.30;;;28.30;88.50;;;;;;6212432;23;20045;-92
2022/08/01 12:45:39;;;;;;;0.22;0.20;;;28.10;88.90;;;;;;6213524;23;20589;-91
2022/08/01 12:48:22;;;;;;;0.20;0.20;;;28.00;88.90;;;;;;6214937;23;20044;-92
2022/08/01 12:50:49;;;;;;;0.40;0.40;;;28.10;89.00;;;;;;6209201;23;20024;-91
2022/08/01 12:53:18;;;;;;;0.20;0.20;;;27.90;89.50;;;;;;6208323;23;20024;-92
2022/08/01 12:55:53;;;;;;;0.43;0.43;;;27.70;90.00;;;;;;6217204;23;20164;-91
2022/08/01 12:58:32;;;;;;;0.63;0.60;;;28.20;89.40;;;;;;6216959;23;20034;-89
2022/08/01 13:01:09;;;;;;;0.28;0.28;;;28.70;89.90;;;;;;6211567;23;20519;-92
2022/08/01 13:03:37;;;;;;;0.35;0.30;;;29.40;86.90;;;;;;6209937;23;20024;-91
2022/08/01 13:06:15;;;;;;;0.38;0.38;;;29.90;87.00;;;;;;6211840;23;20525;-92
2022/08/01 13:08:44;;;;;;;0.20;0.20;;;30.40;86.10;;;;;;6216869;23;20012;-91
2022/08/01 13:11:14;;;;;;;0.40;0.40;;;30.90;85.00;;;;;;6217170;23;20020;-90
2022/08/01 13:13:47;;;;;;;0.25;0.25;;;31.50;83.30;;;;;;6211517;23;20031;-91
2022/08/01 13:16:21;;;;;;;0.20;0.20;;;31.10;82.60;;;;;;6213737;23;20038;-92
2022/08/01 13:19:04;;;;;;;0.30;0.30;;;31.10;82.90;;;;;;6223548;23;20094;-92
2022/08/01 13:21:31;;;;;;;0.40;0.40;;;31.60;81.80;;;;;;6216615;23;20024;-91
2022/08/01 13:24:26;;;;;;;0.40;0.40;;;32.40;80.30;;;;;;6216802;23;20355;-93
2022/08/01 13:26:59;;;;;;;0.20;0.20;;;33.30;78.30;;;;;;6215074;23;20312;-93
2022/08/01 13:29:37;;;;;;;1.02;0.20;;;33.80;76.40;;;;;;6212698;23;20521;-93
2022/08/01 13:32:18;;;;;;;0.20;0.20;;;33.20;75.40;;;;;;6213036;23;20024;-93
2022/08/01 13:35:22;;;;;;;0.20;0.20;;;32.50;75.70;;;;;;6214691;23;20046;-92
2022/08/01 13:37:52;;;;;;;0.40;0.40;;;31.40;77.20;;;;;;6207632;23;20020;-92
2022/08/01 13:40:26;;;;;;;0.20;0.20;;;31.50;79.10;;;;;;6212637;23;20254;-92
2022/08/01 13:42:56;;;;;;;0.30;0.30;;;31.70;78.20;;;;;;6212276;23;20335;-93
2022/08/01 13:45:23;;;;;;;0.22;0.22;;;31.20;78.40;;;;;;6214812;23;20050;-93
2022/08/01 13:47:55;;;;;;;0.35;0.35;;;30.90;78.60;;;;;;6212308;23;20016;-93
2022/08/01 13:50:38;;;;;;;0.30;0.30;;;31.40;77.40;;;;;;6216665;23;20020;-92
2022/08/01 13:53:05;;;;;;;0.40;0.40;;;32.10;75.10;;;;;;6212081;23;20027;-92
2022/08/01 13:55:32;;;;;;;0.30;0.30;;;32.90;74.40;;;;;;6213951;23;20020;-94